ADDS METAR Data INFO
IDs: Format: Raw Decoded Include TAF

Data at: 2254 UTC 22 Jun 2018

KEED 222156Z AUTO VRB03KT 10SM CLR 46/M14 A2968 RMK AO2 SLP008 T04561139
KEED 222056Z AUTO VRB03KT 10SM CLR 45/M10 A2971 RMK AO2 SLP017 T04501100 58023
KEED 221956Z AUTO 03004KT 10SM CLR 44/M12 A2974 RMK AO2 SLP026 T04391117
KEED 221856Z AUTO 35008KT 10SM CLR 43/M11 A2976 RMK AO2 SLP034 T04281106
KEED 221756Z AUTO VRB04KT 10SM CLR 41/M07 A2978 RMK AO2 SLP041 T04111072 10417 20294 58002
KEED 221656Z AUTO 00000KT 10SM CLR 39/M02 A2978 RMK AO2 SLP044 T03891017
KEED 221556Z AUTO 08004KT 10SM CLR 37/M01 A2979 RMK AO2 SLP047 T03671006
KEED 221456Z AUTO 00000KT 10SM CLR 36/00 A2978 RMK AO2 SLP045 T03560000 51016 $
KEED 221356Z AUTO 27003KT 10SM CLR 32/M01 A2977 RMK AO2 SLP041 T03171006
KEED 221256Z AUTO 36009KT 10SM CLR 29/M01 A2975 RMK AO2 SLP035 T02941006
KEED 221156Z AUTO 23009KT 10SM CLR 31/M01 A2973 RMK AO2 SLP028 T03061006 10383 20294 58001
KEED 221056Z AUTO 24003KT 10SM CLR 32/M01 A2974 RMK AO2 SLP030 T03171011
KEED 220956Z AUTO 26009KT 10SM CLR 33/M01 A2973 RMK AO2 SLP027 T03331006
KEED 220856Z AUTO VRB03KT 10SM CLR 33/M02 A2974 RMK AO2 SLP028 T03331017 51005
KEED 220756Z AUTO 24008KT 10SM CLR 37/M02 A2973 RMK AO2 SLPNO T03671022
KEED 220656Z AUTO 24009KT 10SM CLR 36/M03 A2973 RMK AO2 SLPNO T03611028
KEED 220556Z AUTO 22012KT 10SM CLR 38/M03 A2972 RMK AO2 SLPNO T03831033 10461 20383 51005
KEED 220456Z AUTO 21013KT 10SM CLR 39/M02 A2972 RMK AO2 SLPNO T03941022
KEED 220356Z AUTO 21011KT 10SM CLR 41/M04 A2971 RMK AO2 SLPNO T04061044
KEED 220256Z AUTO 20013G20KT 10SM CLR 42/M07 A2971 RMK AO2 SLPNO T04221072 55004
KEED 220156Z AUTO 21013KT 10SM CLR 44/M08 A2971 RMK AO2 SLPNO T04391078
KEED 220056Z AUTO 20014G18KT 10SM CLR 45/M08 A2971 RMK AO2 SLPNO T04501083
KEED 212356Z AUTO 19012G21KT 10SM CLR 46/M07 A2972 RMK AO2 SLPNO T04561072 56021
KEED 212256Z AUTO 22013G27KT 10SM CLR 46/M05 A2974 RMK AO2 PK WND 22027/2254 SLPNO T04611050
KEED 212156Z AUTO 22013KT 10SM CLR 46/M04 A2976 RMK AO2 SLPNO T04611039
KEED 212056Z AUTO 20010G17KT 160V230 10SM CLR 46/M05 A2979 RMK AO2 SLPNO T04561050
KEED 211956Z AUTO A2980 RMK AO2 SLPNO PWINO $
KEED 211856Z AUTO A2982 RMK AO2 SLPNO PWINO $
KEED 211756Z AUTO A2983 RMK AO2 SLPNO 58006 PWINO $
KEED 211656Z AUTO A2984 RMK AO2 SLPNO PWINO $
KEED 211556Z AUTO A2985 RMK AO2 SLPNO PWINO $
KEED 211456Z AUTO A2985 RMK AO2 SLPNO 51013 PWINO $
KEED 211356Z AUTO A2984 RMK AO2 SLPNO PWINO $
KEED 211256Z AUTO A2983 RMK AO2 SLPNO PWINO $
KEED 211156Z AUTO A2981 RMK AO2 SLPNO 7//// 52013 PWINO $
KEED 211056Z AUTO A2979 RMK AO2 SLPNO PWINO $